createdAt,value
2022-10-30T00:01:05.130Z,16.06
2022-10-30T00:03:31.521Z,16.10
2022-10-30T00:05:58.353Z,16.09
2022-10-30T00:08:27.892Z,15.99
2022-10-30T00:10:54.473Z,16.30
2022-10-30T00:13:21.921Z,16.17
2022-10-30T00:15:53.156Z,15.97
2022-10-30T00:18:20.632Z,15.94
2022-10-30T00:20:47.600Z,15.79
2022-10-30T00:23:14.970Z,15.81
2022-10-30T00:25:41.566Z,15.70
2022-10-30T00:28:08.385Z,15.61
2022-10-30T00:30:35.351Z,15.56
2022-10-30T00:33:02.022Z,15.44
2022-10-30T00:35:28.660Z,15.37
2022-10-30T00:37:55.258Z,15.40
2022-10-30T00:40:22.389Z,15.34
2022-10-30T00:42:48.925Z,15.28
2022-10-30T00:45:17.213Z,15.18
2022-10-30T00:47:48.728Z,15.19
2022-10-30T00:53:11.760Z,15.07
2022-10-30T00:55:43.992Z,15.10
2022-10-30T00:58:15.283Z,15.11
2022-10-30T01:00:46.402Z,15.08
2022-10-30T01:03:13.206Z,15.05
2022-10-30T01:05:40.544Z,15.02
2022-10-30T01:08:06.890Z,15.07
2022-10-30T01:10:33.609Z,15.03
2022-10-30T01:13:01.430Z,15.08
2022-10-30T01:15:33.224Z,15.01
2022-10-30T01:18:37.762Z,14.89
2022-10-30T01:21:10.394Z,14.90
2022-10-30T01:23:50.794Z,14.85
2022-10-30T01:26:31.426Z,14.83
2022-10-30T01:29:03.293Z,14.76
2022-10-30T01:31:58.435Z,14.71
2022-10-30T01:34:45.003Z,14.75
2022-10-30T01:37:38.096Z,14.70
2022-10-30T01:40:14.316Z,14.72
2022-10-30T01:42:48.747Z,14.73
2022-10-30T01:45:28.508Z,14.75
2022-10-30T01:48:12.939Z,14.62
2022-10-30T01:50:56.828Z,14.61
2022-10-30T01:53:25.863Z,14.54
2022-10-30T01:56:07.403Z,14.56
2022-10-30T01:58:58.606Z,14.40
2022-10-30T02:01:28.064Z,14.43
2022-10-30T02:03:54.694Z,14.57
2022-10-30T02:06:21.228Z,14.62
2022-10-30T02:08:47.841Z,14.67
2022-10-30T02:11:14.898Z,14.48
2022-10-30T02:13:41.425Z,14.41
2022-10-30T02:16:08.507Z,14.68
2022-10-30T02:18:35.067Z,14.92
2022-10-30T02:21:01.911Z,15.12
2022-10-30T02:23:28.459Z,15.16
2022-10-30T02:25:54.852Z,15.34
2022-10-30T02:28:21.249Z,15.15
2022-10-30T02:30:47.615Z,15.23
2022-10-30T02:33:14.066Z,15.38
2022-10-30T02:35:40.537Z,15.45
2022-10-30T02:38:06.947Z,15.73
2022-10-30T02:40:33.517Z,15.75
2022-10-30T02:42:59.920Z,15.85
2022-10-30T02:45:26.843Z,15.82
2022-10-30T02:47:53.309Z,15.78
2022-10-30T02:50:19.816Z,15.70
2022-10-30T02:52:46.296Z,15.78
2022-10-30T02:55:12.782Z,15.63
2022-10-30T02:57:39.215Z,15.33
2022-10-30T03:00:06.339Z,15.08
2022-10-30T03:02:33.456Z,14.90
2022-10-30T03:04:59.847Z,14.91
2022-10-30T03:07:26.309Z,14.71
2022-10-30T03:09:54.233Z,14.82
2022-10-30T03:12:21.439Z,14.65
2022-10-30T03:14:47.821Z,14.58
2022-10-30T03:17:14.217Z,14.35
2022-10-30T03:19:43.512Z,14.32
2022-10-30T03:22:09.930Z,14.34
2022-10-30T03:24:36.561Z,14.37
2022-10-30T03:27:02.943Z,14.24
2022-10-30T03:29:29.846Z,14.12
2022-10-30T03:31:56.324Z,14.14
2022-10-30T03:34:22.734Z,14.02
2022-10-30T03:36:49.186Z,14.03
2022-10-30T03:39:15.547Z,13.93
2022-10-30T03:41:43.472Z,13.85
2022-10-30T03:44:09.879Z,13.73
2022-10-30T03:46:36.351Z,13.73
2022-10-30T03:49:02.752Z,13.78
2022-10-30T03:51:29.152Z,13.75
2022-10-30T03:53:55.503Z,13.64
2022-10-30T03:56:21.897Z,13.61
2022-10-30T03:58:48.289Z,13.66
2022-10-30T04:01:15.031Z,13.48
2022-10-30T04:03:41.593Z,13.48
2022-10-30T04:06:08.092Z,13.44
2022-10-30T04:08:34.716Z,13.51
2022-10-30T04:11:01.473Z,13.41
2022-10-30T04:13:27.945Z,13.37
2022-10-30T04:15:57.951Z,13.33
2022-10-30T04:18:25.531Z,13.27
2022-10-30T04:20:51.939Z,13.14
2022-10-30T04:23:20.430Z,13.16
2022-10-30T04:25:46.965Z,13.09
2022-10-30T04:28:14.340Z,13.03
2022-10-30T04:30:40.897Z,13.05
2022-10-30T04:33:11.727Z,13.01
2022-10-30T04:35:38.843Z,12.88
2022-10-30T04:38:07.793Z,12.93
2022-10-30T04:40:36.928Z,12.93
2022-10-30T04:43:03.917Z,12.99
2022-10-30T04:45:30.303Z,12.98
2022-10-30T04:48:04.313Z,12.90
2022-10-30T04:50:31.633Z,12.98
2022-10-30T04:53:02.970Z,13.03
2022-10-30T04:55:30.062Z,12.96
2022-10-30T04:57:58.580Z,12.90
2022-10-30T05:00:26.844Z,13.02
2022-10-30T05:02:53.396Z,12.99
2022-10-30T05:05:20.473Z,12.82
2022-10-30T05:07:46.837Z,12.90
2022-10-30T05:10:14.730Z,12.86
2022-10-30T05:12:45.403Z,12.87
2022-10-30T05:15:13.753Z,12.72
2022-10-30T05:17:41.271Z,12.63
2022-10-30T05:20:08.692Z,12.68
2022-10-30T05:22:35.089Z,12.83
2022-10-30T05:25:01.482Z,12.76
2022-10-30T05:27:27.881Z,12.65
2022-10-30T05:29:54.277Z,12.73
2022-10-30T05:32:20.702Z,12.70
2022-10-30T05:34:47.070Z,12.73
2022-10-30T05:37:13.609Z,12.75
2022-10-30T05:39:40.005Z,12.78
2022-10-30T05:42:09.793Z,12.68
2022-10-30T05:44:59.259Z,12.71
2022-10-30T05:47:25.737Z,12.65
2022-10-30T05:49:52.159Z,12.66
2022-10-30T05:52:18.534Z,12.67
2022-10-30T05:54:44.995Z,12.72
2022-10-30T05:57:11.394Z,12.69
2022-10-30T05:59:37.836Z,12.63
2022-10-30T06:02:04.383Z,12.65
2022-10-30T06:04:30.838Z,12.69
2022-10-30T06:06:57.227Z,12.60
2022-10-30T06:09:23.703Z,12.53
2022-10-30T06:11:50.312Z,12.51
2022-10-30T06:14:16.700Z,12.56
2022-10-30T06:16:43.203Z,12.44
2022-10-30T06:19:13.978Z,12.40
2022-10-30T06:21:44.025Z,12.36
2022-10-30T06:24:10.493Z,12.43
2022-10-30T06:26:36.933Z,12.31
2022-10-30T06:29:03.406Z,12.30
2022-10-30T06:31:29.804Z,12.30
2022-10-30T06:33:56.199Z,12.43
2022-10-30T06:36:22.781Z,12.28
2022-10-30T06:38:49.317Z,12.30
2022-10-30T06:41:15.681Z,12.19
2022-10-30T06:43:42.064Z,12.27
2022-10-30T06:46:08.475Z,12.21
2022-10-30T06:48:34.983Z,12.24
2022-10-30T06:51:02.943Z,12.30
2022-10-30T06:53:29.661Z,12.32
2022-10-30T06:56:00.942Z,12.34
2022-10-30T06:58:28.558Z,12.29
2022-10-30T07:00:55.700Z,12.37
2022-10-30T07:03:22.325Z,12.30
2022-10-30T07:05:48.728Z,12.39
2022-10-30T07:08:15.109Z,12.37
2022-10-30T07:10:41.551Z,12.45
2022-10-30T07:13:08.744Z,12.41
2022-10-30T07:15:35.282Z,12.48
2022-10-30T07:18:03.613Z,12.52
2022-10-30T07:20:32.967Z,12.55
2022-10-30T07:22:59.864Z,12.60
2022-10-30T07:25:26.734Z,12.61
2022-10-30T07:27:54.647Z,12.75
2022-10-30T07:30:23.765Z,12.93
2022-10-30T07:33:02.336Z,12.98
2022-10-30T07:35:29.436Z,13.05
2022-10-30T07:37:56.314Z,13.18
2022-10-30T07:40:22.793Z,13.25
2022-10-30T07:42:49.226Z,13.27
2022-10-30T07:45:15.671Z,13.37
2022-10-30T07:47:43.493Z,13.53
2022-10-30T07:50:11.057Z,13.72
2022-10-30T07:52:37.516Z,13.87
2022-10-30T07:55:05.034Z,14.00
2022-10-30T07:57:35.712Z,14.11
2022-10-30T08:00:06.098Z,14.29
2022-10-30T08:02:32.897Z,14.61
2022-10-30T08:04:59.376Z,15.16
2022-10-30T08:07:38.067Z,15.60
2022-10-30T08:10:05.229Z,15.76
2022-10-30T08:12:33.285Z,15.96
2022-10-30T08:14:59.990Z,16.46
2022-10-30T08:17:26.381Z,16.34
2022-10-30T08:19:52.806Z,16.64
2022-10-30T08:22:19.366Z,17.13
2022-10-30T08:24:45.785Z,17.53
2022-10-30T08:27:12.192Z,17.78
2022-10-30T08:29:38.549Z,17.97
2022-10-30T08:32:08.736Z,18.11
2022-10-30T08:34:35.251Z,18.15
2022-10-30T08:37:01.913Z,18.21
2022-10-30T08:39:28.513Z,18.50
2022-10-30T08:41:57.504Z,18.60
2022-10-30T08:44:23.946Z,18.59
2022-10-30T08:46:50.314Z,18.63
2022-10-30T08:49:16.754Z,18.52
2022-10-30T08:51:44.269Z,18.81
2022-10-30T08:54:10.811Z,18.99
2022-10-30T08:56:37.237Z,19.03
2022-10-30T08:59:03.640Z,19.43
2022-10-30T09:01:30.091Z,19.64
2022-10-30T09:03:56.658Z,20.11
2022-10-30T09:06:23.061Z,20.00
2022-10-30T09:08:49.474Z,20.08
2022-10-30T09:11:17.442Z,20.51
2022-10-30T09:13:43.911Z,20.79
2022-10-30T09:16:10.347Z,20.71
2022-10-30T09:18:36.830Z,20.62
2022-10-30T09:21:05.072Z,21.24
2022-10-30T09:23:31.986Z,21.27
2022-10-30T09:25:58.440Z,21.81
2022-10-30T09:28:24.933Z,22.30
2022-10-30T09:30:56.215Z,22.07
2022-10-30T09:33:23.157Z,21.97
2022-10-30T09:35:50.691Z,22.42
2022-10-30T09:38:17.175Z,23.02
2022-10-30T09:40:46.480Z,23.10
2022-10-30T09:43:35.148Z,23.55
2022-10-30T09:46:04.515Z,23.87
2022-10-30T09:48:39.952Z,23.91
2022-10-30T09:51:24.816Z,23.82
2022-10-30T09:53:56.968Z,24.47
2022-10-30T09:56:40.342Z,24.58
2022-10-30T09:59:15.616Z,24.87
2022-10-30T10:01:53.128Z,24.80
2022-10-30T10:04:25.563Z,24.63
2022-10-30T10:07:00.630Z,25.07
2022-10-30T10:09:29.986Z,25.33
2022-10-30T10:12:00.675Z,24.91
2022-10-30T10:14:34.952Z,25.40
2022-10-30T10:17:05.300Z,25.51
2022-10-30T10:19:59.321Z,25.27
2022-10-30T10:22:49.969Z,25.44
2022-10-30T10:25:19.553Z,24.85
2022-10-30T10:28:01.419Z,25.18
2022-10-30T10:31:00.145Z,25.32
2022-10-30T10:33:40.578Z,25.91
2022-10-30T10:36:17.589Z,25.56
2022-10-30T10:39:14.560Z,25.60
2022-10-30T10:41:59.619Z,26.17
2022-10-30T10:44:49.275Z,26.68
2022-10-30T10:47:23.499Z,26.58
2022-10-30T10:50:19.017Z,27.02
2022-10-30T10:53:05.464Z,27.01
2022-10-30T10:55:38.251Z,27.33
2022-10-30T10:58:14.065Z,28.16
2022-10-30T11:00:40.783Z,27.52
2022-10-30T11:05:56.639Z,27.05
2022-10-30T11:08:31.937Z,26.79
2022-10-30T11:11:01.015Z,26.62
2022-10-30T11:13:34.952Z,26.87
2022-10-30T11:16:01.317Z,26.59
2022-10-30T11:18:27.710Z,27.04
2022-10-30T11:21:00.734Z,26.93
2022-10-30T11:23:47.087Z,27.15
2022-10-30T11:26:22.864Z,26.84
2022-10-30T11:28:59.868Z,26.99
2022-10-30T11:31:28.298Z,27.36
2022-10-30T11:33:54.705Z,27.59
2022-10-30T11:36:25.898Z,27.53
2022-10-30T11:38:57.166Z,26.96
2022-10-30T11:41:23.760Z,27.50
2022-10-30T11:43:50.319Z,27.02
2022-10-30T11:46:23.280Z,27.23
2022-10-30T11:48:55.012Z,27.19
2022-10-30T11:51:52.448Z,27.16
2022-10-30T11:54:21.610Z,27.08
2022-10-30T11:56:49.943Z,26.82
2022-10-30T11:59:21.797Z,26.76
2022-10-30T12:02:20.339Z,26.75
2022-10-30T12:04:46.848Z,26.44
2022-10-30T12:07:34.740Z,26.20
2022-10-30T12:10:02.314Z,26.33
2022-10-30T12:12:33.121Z,26.23
2022-10-30T12:15:15.105Z,26.26
2022-10-30T12:17:54.031Z,26.12
2022-10-30T12:20:21.029Z,26.58
2022-10-30T12:22:47.655Z,26.78
2022-10-30T12:25:30.326Z,26.94
2022-10-30T12:28:04.580Z,26.16
2022-10-30T12:30:37.561Z,26.27
2022-10-30T12:33:20.790Z,25.92
2022-10-30T12:35:55.779Z,26.26
2022-10-30T12:38:26.623Z,26.03
2022-10-30T12:41:03.999Z,26.21
2022-10-30T12:43:34.808Z,26.46
2022-10-30T12:46:22.781Z,26.41
2022-10-30T12:49:09.452Z,26.67
2022-10-30T12:51:42.284Z,26.64
2022-10-30T12:54:22.833Z,26.86
2022-10-30T12:56:57.095Z,26.42
2022-10-30T13:00:14.682Z,26.61
2022-10-30T13:02:48.191Z,26.51
2022-10-30T13:05:30.194Z,26.31
2022-10-30T13:08:29.729Z,25.88
2022-10-30T13:11:37.446Z,25.51
2022-10-30T13:14:10.266Z,24.98
2022-10-30T13:16:36.808Z,24.85
2022-10-30T13:19:03.664Z,24.66
2022-10-30T13:21:55.635Z,24.06
2022-10-30T13:24:27.452Z,24.14
2022-10-30T13:27:36.536Z,24.02
2022-10-30T13:30:12.774Z,23.73
2022-10-30T13:32:51.127Z,23.82
2022-10-30T13:35:25.325Z,23.84
2022-10-30T13:38:13.365Z,23.92
2022-10-30T13:41:08.951Z,24.00
2022-10-30T13:43:52.234Z,23.92
2022-10-30T13:46:47.858Z,23.68
2022-10-30T13:49:35.529Z,23.55
2022-10-30T13:52:12.184Z,23.26
2022-10-30T13:55:01.086Z,23.32
2022-10-30T13:57:45.825Z,23.21
2022-10-30T14:00:12.673Z,23.08
2022-10-30T14:02:45.380Z,22.96
2022-10-30T14:05:39.477Z,23.07
2022-10-30T14:08:08.956Z,22.84
2022-10-30T14:10:54.571Z,22.88
2022-10-30T14:13:26.962Z,22.94
2022-10-30T14:15:56.350Z,22.97
2022-10-30T14:18:25.756Z,22.92
2022-10-30T14:20:54.381Z,22.96
2022-10-30T14:23:35.972Z,22.88
2022-10-30T14:26:02.374Z,22.84
2022-10-30T14:28:30.489Z,22.82
2022-10-30T14:31:05.141Z,22.79
2022-10-30T14:33:40.772Z,22.94
2022-10-30T14:36:25.379Z,22.96
2022-10-30T14:38:53.907Z,22.93
2022-10-30T14:41:35.436Z,22.90
2022-10-30T14:44:23.386Z,22.68
2022-10-30T14:47:02.128Z,22.78
2022-10-30T14:49:36.811Z,22.29
2022-10-30T14:52:28.666Z,22.16
2022-10-30T14:55:26.080Z,22.05
2022-10-30T14:57:53.688Z,21.80
2022-10-30T15:00:38.012Z,21.68
2022-10-30T15:03:15.463Z,21.47
2022-10-30T15:05:58.654Z,21.23
2022-10-30T15:08:37.314Z,20.93
2022-10-30T15:11:30.661Z,20.69
2022-10-30T15:14:01.058Z,20.42
2022-10-30T15:16:29.460Z,20.30
2022-10-30T15:19:06.232Z,20.12
2022-10-30T15:21:45.748Z,20.30
2022-10-30T15:24:16.810Z,20.15
2022-10-30T15:26:49.046Z,20.02
2022-10-30T15:29:21.061Z,20.07
2022-10-30T15:32:04.439Z,20.02
2022-10-30T15:34:33.389Z,19.93
2022-10-30T15:36:59.806Z,19.89
2022-10-30T15:39:26.210Z,19.84
2022-10-30T15:41:58.273Z,19.65
2022-10-30T15:44:27.745Z,19.56
2022-10-30T15:46:56.880Z,19.37
2022-10-30T15:49:41.266Z,19.24
2022-10-30T15:52:30.845Z,19.03
2022-10-30T15:55:01.239Z,18.91
2022-10-30T16:00:31.515Z,18.66
2022-10-30T16:03:16.455Z,18.51
2022-10-30T16:05:43.028Z,18.41
2022-10-30T16:08:20.916Z,18.30
2022-10-30T16:10:48.468Z,18.13
2022-10-30T16:13:18.906Z,17.94
2022-10-30T16:15:50.161Z,17.89
2022-10-30T16:18:25.485Z,17.71
2022-10-30T16:20:54.814Z,17.54
2022-10-30T16:23:22.165Z,17.54
2022-10-30T16:25:54.923Z,17.36
2022-10-30T16:28:46.810Z,17.22
2022-10-30T16:31:15.958Z,17.12
2022-10-30T16:33:44.545Z,17.04
2022-10-30T16:36:16.906Z,16.95
2022-10-30T16:38:46.169Z,16.86
2022-10-30T16:41:13.718Z,16.84
2022-10-30T16:43:41.969Z,16.73
2022-10-30T16:46:14.243Z,16.61
2022-10-30T16:48:48.429Z,16.58
2022-10-30T16:51:17.496Z,16.58
2022-10-30T16:53:48.866Z,16.49
2022-10-30T16:56:25.090Z,16.37
2022-10-30T16:58:58.979Z,16.31
2022-10-30T17:01:28.643Z,16.29
2022-10-30T17:03:56.273Z,16.16
2022-10-30T17:06:39.702Z,16.14
2022-10-30T17:09:21.356Z,16.07
2022-10-30T17:12:03.936Z,15.94
2022-10-30T17:14:51.127Z,15.94
2022-10-30T17:17:33.084Z,15.80
2022-10-30T17:20:01.959Z,15.77
2022-10-30T17:22:29.366Z,15.75
2022-10-30T17:24:56.184Z,15.73
2022-10-30T17:27:48.043Z,15.70
2022-10-30T17:30:34.718Z,15.63
2022-10-30T17:33:24.763Z,15.43
2022-10-30T17:35:51.608Z,15.37
2022-10-30T17:38:18.669Z,15.42
2022-10-30T17:40:45.343Z,15.46
2022-10-30T17:43:15.268Z,15.29
2022-10-30T17:45:42.829Z,15.36
2022-10-30T17:48:17.972Z,15.24
2022-10-30T17:50:44.931Z,15.16
2022-10-30T17:53:21.684Z,15.28
2022-10-30T17:55:56.794Z,15.13
2022-10-30T17:58:23.324Z,15.03
2022-10-30T18:00:49.903Z,15.07
2022-10-30T18:03:16.383Z,15.03
2022-10-30T18:05:43.698Z,14.99
2022-10-30T18:08:10.178Z,14.98
2022-10-30T18:10:36.592Z,15.05
2022-10-30T18:13:03.359Z,14.83
2022-10-30T18:15:42.076Z,14.98
2022-10-30T18:18:08.504Z,14.93
2022-10-30T18:20:34.879Z,14.97
2022-10-30T18:23:03.119Z,14.93
2022-10-30T18:25:35.699Z,14.95
2022-10-30T18:28:02.669Z,14.76
2022-10-30T18:30:29.392Z,14.68
2022-10-30T18:32:56.830Z,14.72
2022-10-30T18:35:33.607Z,14.63
2022-10-30T18:38:00.033Z,14.61
2022-10-30T18:40:26.404Z,14.58
2022-10-30T18:42:52.902Z,14.54
2022-10-30T18:45:27.775Z,14.43
2022-10-30T18:47:54.925Z,14.50
2022-10-30T18:50:22.881Z,14.48
2022-10-30T18:52:49.798Z,14.44
2022-10-30T18:55:25.696Z,14.51
2022-10-30T18:57:53.186Z,14.36
2022-10-30T19:00:25.895Z,14.48
2022-10-30T19:02:53.027Z,14.37
2022-10-30T19:05:38.954Z,14.41
2022-10-30T19:08:06.670Z,14.44
2022-10-30T19:10:36.501Z,14.47
2022-10-30T19:13:12.660Z,14.46
2022-10-30T19:15:42.296Z,14.42
2022-10-30T19:18:08.871Z,14.41
2022-10-30T19:20:58.558Z,14.38
2022-10-30T19:23:25.163Z,14.37
2022-10-30T19:25:52.573Z,14.39
2022-10-30T19:28:20.858Z,14.41
2022-10-30T19:30:53.003Z,14.40
2022-10-30T19:33:21.569Z,14.47
2022-10-30T19:35:56.391Z,14.42
2022-10-30T19:38:23.538Z,14.39
2022-10-30T19:40:50.165Z,14.38
2022-10-30T19:43:16.588Z,14.30
2022-10-30T19:45:43.204Z,14.29
2022-10-30T19:51:13.992Z,14.25
2022-10-30T19:53:40.981Z,14.26
2022-10-30T19:56:10.908Z,14.22
2022-10-30T19:58:37.448Z,14.21
2022-10-30T20:01:03.866Z,14.26
2022-10-30T20:03:30.313Z,14.20
2022-10-30T20:05:56.758Z,14.15
2022-10-30T20:08:25.112Z,14.04
2022-10-30T20:10:53.844Z,14.08
2022-10-30T20:13:21.516Z,14.06
2022-10-30T20:15:47.951Z,13.97
2022-10-30T20:18:17.325Z,13.94
2022-10-30T20:20:52.418Z,13.97
2022-10-30T20:23:20.311Z,13.82
2022-10-30T20:25:48.796Z,13.82
2022-10-30T20:28:18.206Z,13.79
2022-10-30T20:30:44.641Z,13.61
2022-10-30T20:33:13.178Z,13.61
2022-10-30T20:35:39.764Z,13.68
2022-10-30T20:38:06.380Z,13.62
2022-10-30T20:40:32.835Z,13.62
2022-10-30T20:43:02.879Z,13.57
2022-10-30T20:45:29.874Z,13.56
2022-10-30T20:47:56.458Z,13.55
2022-10-30T20:50:23.340Z,13.46
2022-10-30T20:52:49.845Z,13.46
2022-10-30T20:55:16.494Z,13.47
2022-10-30T20:57:43.170Z,13.46
2022-10-30T21:00:12.172Z,13.30
2022-10-30T21:02:39.224Z,13.41
2022-10-30T21:05:17.296Z,13.32
2022-10-30T21:07:50.033Z,13.28
2022-10-30T21:10:16.403Z,13.28
2022-10-30T21:12:42.810Z,13.22
2022-10-30T21:15:09.548Z,13.21
2022-10-30T21:17:35.907Z,13.18
2022-10-30T21:20:02.468Z,13.16
2022-10-30T21:22:28.852Z,13.15
2022-10-30T21:24:55.244Z,13.12
2022-10-30T21:27:21.616Z,13.12
2022-10-30T21:29:48.170Z,12.99
2022-10-30T21:32:14.604Z,12.93
2022-10-30T21:34:41.004Z,12.96
2022-10-30T21:37:07.376Z,12.97
2022-10-30T21:39:34.025Z,12.90
2022-10-30T21:42:00.380Z,12.86
2022-10-30T21:44:26.812Z,12.87
2022-10-30T21:46:53.270Z,12.88
2022-10-30T21:49:19.701Z,12.85
2022-10-30T21:51:49.526Z,12.83
2022-10-30T21:54:19.455Z,12.80
2022-10-30T21:56:46.077Z,12.83
2022-10-30T21:59:13.456Z,12.93
2022-10-30T22:01:41.028Z,12.89
2022-10-30T22:04:10.331Z,12.81
2022-10-30T22:06:44.256Z,12.81
2022-10-30T22:09:15.175Z,12.82
2022-10-30T22:11:42.020Z,12.79
2022-10-30T22:14:08.575Z,12.80
2022-10-30T22:16:37.067Z,12.77
2022-10-30T22:19:05.488Z,12.79
2022-10-30T22:21:32.013Z,12.80
2022-10-30T22:24:02.342Z,12.77
2022-10-30T22:26:29.468Z,12.73
2022-10-30T22:29:00.390Z,12.77
2022-10-30T22:31:28.929Z,12.73
2022-10-30T22:33:55.895Z,12.72
2022-10-30T22:36:24.995Z,12.79
2022-10-30T22:38:57.497Z,12.79
2022-10-30T22:41:24.564Z,12.85
2022-10-30T22:43:54.717Z,12.60
2022-10-30T22:46:23.307Z,12.67
2022-10-30T22:48:49.807Z,12.68
2022-10-30T22:51:17.808Z,12.75
2022-10-30T22:53:46.325Z,12.50
2022-10-30T22:56:20.855Z,12.62
2022-10-30T22:58:48.947Z,12.66
2022-10-30T23:01:24.157Z,12.68
2022-10-30T23:03:52.048Z,12.71
2022-10-30T23:06:19.781Z,12.74
2022-10-30T23:08:46.203Z,12.73
2022-10-30T23:11:13.133Z,12.69
2022-10-30T23:13:40.496Z,12.74
2022-10-30T23:16:10.717Z,12.76
2022-10-30T23:18:37.285Z,12.79
2022-10-30T23:21:07.123Z,12.77
2022-10-30T23:23:36.297Z,12.83
2022-10-30T23:26:08.858Z,12.82
2022-10-30T23:28:35.707Z,12.87
2022-10-30T23:31:19.601Z,12.87
2022-10-30T23:33:50.765Z,12.83
2022-10-30T23:36:18.222Z,12.83
2022-10-30T23:38:44.968Z,12.87
2022-10-30T23:41:11.336Z,12.84
2022-10-30T23:43:37.754Z,12.87
2022-10-30T23:46:04.221Z,12.91
2022-10-30T23:48:30.607Z,12.97
2022-10-30T23:50:57.065Z,12.79
2022-10-30T23:53:23.559Z,12.88
2022-10-30T23:55:54.285Z,12.90
2022-10-30T23:58:21.165Z,12.87
